Airfield :
LOGIN :

Register | Disclaimer

   EN    FR    IT 

 










Legend :    VFR   Marginal VFR   IFR   Intensive IFR   Very Intensive IFR
Visi :
Ceiling :
>= 8 km
>= 3000ft
5 to 8 km
1000 to 3000 ft
1500m to 5 km
500 to 1000 ft
800 to 1500m
200 to 500 ft
< 800m
< 200 ft
Symbols :   Thunderstorms  Fog  Heavy snow  Heavy precipitations  Wind > 20 kt
SIGMETs :     Misc.  Thunderstorms  Icing  Turbulence  Mountain Waves  Volcanic Ashes







- Airport Elevation : 74 ft
- IATA code : EIN


EHEH - Eindhoven

CURRENT METAR :
  • 192155Z AUTO 21005KT 9999 OVC030 19/16 Q1024 BLU 21003KT 9999 FEW022 BKN035

EXPIRED METARs :
  • 192125Z AUTO 21003KT 9999 FEW027 OVC031 19/16 Q1024 BLU 21003KT 9999 SCT022 BKN035
  • 192055Z AUTO VRB02KT 9000 BR FEW020 OVC032 18/16 Q1024 BLU VRB03KT 9000 BR SCT022 BKN035
  • 192040Z AUTO VRB02KT 9000 BR OVC030 18/16 Q1024 BLU VRB03KT 9000 BR SCT022 BKN035
  • 192034Z AUTO VRB02KT 9000 BR OVC031 19/16 Q1024 BLACKBLU VRB03KT 9999 SCT022 BKN035
  • 192025Z AUTO VRB01KT 9000 BR SCT032 OVC036 19/16 Q1024 BLU VRB03KT 9999 SCT022 BKN035
  • 191955Z AUTO 19002KT 9000 BR OVC034 19/16 Q1023 BLU VRB03KT 9999 SCT022 BKN035
  • 191925Z AUTO 19002KT 9999 OVC034 19/16 Q1023 BLU VRB03KT 9999 SCT022 BKN035
  • 191910Z AUTO 18002KT 9999 SCT020 BKN024 OVC038 19/16 Q1023 WHT VRB03KT 9999 SCT022 BKN035

TAF TAF EHEH
Valid from the 19 at 18:00 until the 21 at 00:00 UTC


191701Z 1918/2024 25003KT 9999 SCT023 BKN035
BECMG 1918/1920 VRB02KT
PROB40
TEMPO 2001/2006 4500 BR MIFG FEW040
BECMG 2007/2009 23009KT
No reported NOTAMs for that airfield.



MET'MAP, your aeronautical weather chart ! - Copyright ORBIFLY December 2007 - Disclaimer

ORBIFLY MET'MAP TEAM :

Programming & Development : Alexandra Zaïnal
Concept & Development : Baudouin d'Aumeries
Co-Development & Prog : Marc-Olivier Méhu
Technical & hardware support : Manuel Goepfert

Contact : metmap@orbifly.com




SOURCES & CREDITS :

   NOAA